Airfield :
LOGIN :

Register | Disclaimer

   EN    FR    IT 

 










Legend :    VFR   Marginal VFR   IFR   Intensive IFR   Very Intensive IFR
Visi :
Ceiling :
>= 8 km
>= 3000ft
5 to 8 km
1000 to 3000 ft
1500m to 5 km
500 to 1000 ft
800 to 1500m
200 to 500 ft
< 800m
< 200 ft
Symbols :   Thunderstorms  Fog  Heavy snow  Heavy precipitations  Wind > 20 kt
SIGMETs :     Misc.  Thunderstorms  Icing  Turbulence  Mountain Waves  Volcanic Ashes







- Airport Elevation : 1686 ft
- IATA code : MUW


DAOV - Ghriss

CURRENT METAR :
  • 170500Z 31008KT 8000 FEW023 BKN026 18/16 Q1018

EXPIRED METARs :
  • 170400Z 30005KT 8000 SCT033 17/16 Q1018
  • 170300Z 29006KT 8000 SCT033 18/16 Q1018

TAF TAF DAOV
Valid from the 17 at 00:00 until the 17 at 09:00 UTC


162300Z 1700/1709 28008KT 8000 BKN030
BECMG 1703/1706 VRB02KT
No reported NOTAMs for that airfield.
1 SIGMET reported for the Alger FIR (DAAA) :
 
Embedded thunderstorms
DAAA SIGMET 2 VALID 170320/170600 DAMM
DAAA ALGER FIR EMBD TS OBS WI N3853 E00552 - N3748 E00249 - N3613 E00237 - N3648 E00715 - N3853 E00552 TOP FL320 MOV NE 20KT NC=



MET'MAP, your aeronautical weather chart ! - Copyright ORBIFLY December 2007 - Disclaimer

ORBIFLY MET'MAP TEAM :

Programming & Development : Alexandra Zaïnal
Concept & Development : Baudouin d'Aumeries
Co-Development & Prog : Marc-Olivier Méhu
Technical & hardware support : Manuel Goepfert

Contact : metmap@orbifly.com




SOURCES & CREDITS :

   NOAA